x

Central Caribbean - 210 Nm Sse Of Kingston, Jamaica (42058) Wave Buoy

2:50 - Thu 5th May 2016 All times are EST. -5 hours from GMT.

  • Sig Wave height 4.9ft
  • Swell Direction
  • Peak Period 7s
  • Average Period 5s
  • Wind
    16mph, 20mph gusts
  • Sea Temp 83°f
  • Aire Temp 82°f
  • Sea Pressure 1010.4mb
  • Central Caribbean - 210 Nm Sse Of Kingston, Jamaica
  • Central Caribbean - 210 Nm Sse Of Kingston, Jamaica

More Historic Weather Station data

Upgrade to MSW Pro to gain access to the past 30 days of data for over 8000 Wavebouys and Weather Stations around the globe.

Join Pro

Comparision Forecast

View Surf forecast
   
jue 05/05 2:50 5ft 7s 5s 16 20 mph 1010.4mb 83f 82f
1:50 5ft 7s 5s 18 20 mph 1010.9mb 83f 82f
12:50 5ft 8s 5s 16 18 mph 1011.5mb 83f 82f
mié 05/04 11:50 5ft 7s 5s 18 20 mph 1012mb 83f 83f
10:50 5ft 8s 5s 18 20 mph 1012.4mb 83f 83f
9:50 5ft 8s 5s 18 20 mph 1012.6mb 83f 83f
8:50 5ft 8s 5s 16 18 mph 1011.9mb 83f 83f
7:50 5ft 8s 5s 16 18 mph 1011.1mb 83f 83f
6:50 5ft 7s 5s 16 18 mph 1010.4mb 83f 83f
5:50 4.5ft 7s 5s 16 18 mph 1009.7mb 83f 83f
4:50 4.5ft 7s 5s 13 18 mph 1009.5mb 83f 83f
3:50 5ft 8s 5s 16 18 mph 1009.3mb 83f 83f
2:50 5ft 7s 5s 16 18 mph 1010mb 83f 83f
1:50 5ft 7s 5s 16 18 mph 1010.8mb 83f 83f
12:50 5ft 7s 5s 16 18 mph 1012mb 83f 83f
11:50 4.5ft 7s 5s 16 18 mph 1012.9mb 83f 83f
10:50 5ft 7s 5s 18 20 mph 1013.2mb 83f 83f
9:50 4.5ft 8s 5s 18 22 mph 1013.8mb 83f 83f
8:50 4.5ft 8s 5s 18 22 mph 1013.9mb 83f 83f
7:50 4.5ft 8s 5s 16 20 mph 1013.7mb 83f 83f
6:50 5ft 7s 5s 16 18 mph 1013.4mb 83f 83f
5:50 4.5ft 8s 5s 13 16 mph 1012.7mb 83f 82f
4:50 5.5ft 8s 6s 16 18 mph 1012.1mb 83f 82f
3:50 5ft 8s 5s 16 18 mph 1011.8mb 83f 82f
2:50 6ft 8s 6s 16 18 mph 1011.7mb 83f 82f
1:50 5ft 8s 5s 13 18 mph 1012mb 83f 82f
12:50 5ft 8s 6s 18 20 mph 1012.6mb 83f 82f
mar 05/03 11:50 6ft 8s 6s 18 20 mph 1013.4mb 83f 82f
10:50 6ft 8s 6s 16 18 mph 1014mb 83f 83f
9:50 6ft 8s 6s 16 20 mph 1014mb 83f 83f
8:50 5.5ft 8s 6s 16 20 mph 1013.5mb 83f 83f
7:50 5.5ft 8s 6s 18 20 mph 1012.9mb 83f 83f
6:50 6ft 8s 6s 16 20 mph 1012mb 83f 83f
5:50 6ft 8s 6s 16 18 mph 1011.5mb 83f 83f
4:50 6ft 8s 6s 16 18 mph 1011mb 83f 83f
3:50 6ft 8s 6s 13 18 mph 1011.2mb 83f 83f
2:50 6ft 8s 6s 13 18 mph 1011.6mb 83f 83f
1:50 6.5ft 8s 6s 16 18 mph 1012.1mb 83f 83f
12:50 7ft 8s 6s 16 18 mph 1013.1mb 83f 83f
11:50 6ft 8s 6s 16 20 mph 1013.7mb 83f 83f
10:50 6.5ft 9s 6s 18 22 mph 1013.9mb 83f 83f
9:50 7ft 8s 6s 18 20 mph 1014.1mb 83f 82f
7:50 7ft 8s 6s 20 22 mph 1013.4mb 83f 83f
6:50 7ft 8s 6s 18 22 mph 1012.7mb 83f 83f
5:50 6.5ft 7s 6s 20 25 mph 1012.1mb 83f 82f
4:50 7ft 8s 6s 20 25 mph 1011.8mb 83f 82f
2:50 7.5ft 8s 6s 20 22 mph 1011.4mb 83f 82f
1:50 7ft 8s 6s 22 25 mph 1011.8mb 83f 82f
12:50 7ft 8s 6s 20 25 mph 1012.6mb 83f 82f
lun 05/02 11:50 7ft 8s 6s 20 25 mph 1013.3mb 83f 83f
10:50 6.5ft 8s 6s 22 25 mph 1013.7mb 83f 83f
9:50 7ft 8s 6s 25 29 mph 1013.8mb 83f 83f
8:50 6.5ft 8s 6s 20 25 mph 1013.5mb 83f 83f
7:50 6.5ft 8s 6s 20 22 mph 1012.9mb 83f 83f
6:50 6.5ft 8s 6s 20 22 mph 1012mb 83f 82f
5:50 6ft 8s 6s 18 22 mph 1011.4mb 83f 83f
4:50 6ft 8s 6s 20 27 mph 1010.8mb 83f 81f
3:50 8ft 8s 6s 18 20 mph 1010.5mb 83f 83f
2:50 7ft 8s 6s 18 20 mph 1010.8mb 83f 83f
1:50 7ft 8s 6s 18 22 mph 1011.3mb 83f 82f
12:50 7ft 8s 6s 18 22 mph 1012.4mb 83f 82f
11:50 7.5ft 8s 6s 20 25 mph 1013mb 83f 82f
10:50 7.5ft 8s 6s 20 22 mph 1013.4mb 83f 82f
9:50 8ft 8s 6s 22 27 mph 1013.7mb 83f 82f
8:50 7ft 8s 5s 25 31 mph 1013.3mb 83f 80f
7:50 6ft 8s 5s 31 38 mph 1012.7mb 83f 78f
6:50 6ft 8s 6s 18 22 mph 1012mb 83f 83f
5:50 5.5ft 8s 5s 16 18 mph 1011.1mb 83f 82f
4:50 6ft 7s 6s 16 18 mph 1010.3mb 83f 82f
3:50 6ft 8s 6s 18 20 mph 1009.9mb 83f 82f
2:50 6ft 8s 6s 18 22 mph 1009.9mb 83f 83f
1:50 6.5ft 8s 5s 20 22 mph 1010.3mb 83f 83f
12:50 7ft 8s 6s 20 25 mph 1010.8mb 83f 82f
dom 05/01 11:50 6ft 8s 6s 20 25 mph 1011.1mb 83f 82f
10:50 6ft 7s 5s 20 22 mph 1011.8mb 83f 83f
9:50 6ft 8s 6s 18 22 mph 1011.9mb 83f 83f
8:50 5.5ft 8s 5s 18 22 mph 1011.7mb 83f 83f
7:50 5ft 8s 5s 20 25 mph 1011mb 83f 83f
6:50 6ft 7s 5s 18 22 mph 1010.1mb 83f 83f
5:50 5.5ft 8s 5s 20 22 mph 1009.9mb 83f 83f
4:50 5.5ft 8s 5s 16 18 mph 1009.2mb 83f 83f
3:50 5.5ft 7s 5s 18 20 mph 1009.3mb 83f 83f
2:50 5.5ft 7s 5s 13 18 mph 1009.7mb 83f 83f
1:50 5.5ft 8s 5s 18 20 mph 1010.1mb 83f 83f
12:50 5.5ft 7s 5s 18 20 mph 1010.9mb 83f 83f
11:50 5ft 7s 5s 18 22 mph 1011.3mb 83f 83f
10:50 5ft 7s 5s 18 22 mph 1011.5mb 83f 83f
9:50 5ft 7s 5s 13 16 mph 1011.5mb 83f 82f